Time;durP1;ratioP1;P1;durP2;ratioP2;P2;SDS_P1;SDS_P2;PMS_P1;PMS_P2;Temp;Humidity;BMP_temperature;BMP_pressure;BME280_temperature;BME280_humidity;BME280_pressure;Samples;Min_cycle;Max_cycle;Signal;HPM_P1;HPM_P2
2024/01/08 00:01:12;;;;;;;4.00;3.60;;;-0.70;99.90;;;;;;4987933;28;20516;-64
2024/01/08 00:03:40;;;;;;;4.43;3.23;;;-0.80;99.90;;;;;;4986141;28;20501;-62
2024/01/08 00:06:08;;;;;;;4.50;3.40;;;-0.70;99.90;;;;;;4990181;28;20479;-63
2024/01/08 00:08:36;;;;;;;4.27;3.40;;;-0.70;99.90;;;;;;4983435;28;21008;-63
2024/01/08 00:11:04;;;;;;;5.47;3.80;;;-0.70;99.90;;;;;;4984737;28;20587;-63
2024/01/08 00:13:33;;;;;;;5.00;3.77;;;-0.70;99.90;;;;;;4983846;28;20504;-63
2024/01/08 00:16:01;;;;;;;5.57;3.80;;;-0.70;99.90;;;;;;4987075;28;20506;-63
2024/01/08 00:18:30;;;;;;;5.90;3.50;;;-0.80;99.90;;;;;;4987091;28;21026;-63
2024/01/08 00:20:59;;;;;;;3.30;3.00;;;-0.80;99.90;;;;;;4987091;28;20493;-65
2024/01/08 00:23:28;;;;;;;3.87;3.13;;;-0.70;99.90;;;;;;4982486;28;20485;-61
2024/01/08 00:25:56;;;;;;;5.40;3.60;;;-0.70;99.90;;;;;;4984195;28;20466;-62
2024/01/08 00:28:25;;;;;;;4.57;3.10;;;-0.70;99.90;;;;;;4984877;28;20461;-63
2024/01/08 00:30:53;;;;;;;3.30;3.00;;;-0.70;99.90;;;;;;4985511;28;20489;-62
2024/01/08 00:33:21;;;;;;;3.83;3.50;;;-0.80;99.90;;;;;;4985963;28;20571;-63
2024/01/08 00:35:52;;;;;;;5.10;3.43;;;-0.80;99.90;;;;;;4986747;28;20484;-63
2024/01/08 00:38:20;;;;;;;5.50;3.57;;;-0.80;99.90;;;;;;4985762;28;20621;-62
2024/01/08 00:40:48;;;;;;;3.80;3.40;;;-0.80;99.90;;;;;;4980974;28;20599;-63
2024/01/08 00:43:16;;;;;;;3.97;3.50;;;-0.80;99.90;;;;;;4984700;28;21016;-63
2024/01/08 00:45:44;;;;;;;4.07;3.67;;;-0.80;99.90;;;;;;4982555;28;20481;-63
2024/01/08 00:48:12;;;;;;;3.87;3.57;;;-0.80;99.90;;;;;;4984238;28;20530;-63
2024/01/08 00:50:40;;;;;;;5.23;3.20;;;-0.80;99.90;;;;;;4989431;28;21073;-62
2024/01/08 00:53:10;;;;;;;4.20;3.77;;;-0.80;99.90;;;;;;4988802;28;21195;-62
2024/01/08 00:55:38;;;;;;;3.73;3.17;;;-0.80;99.90;;;;;;4988948;28;20981;-63
2024/01/08 00:58:06;;;;;;;5.10;3.43;;;-0.80;99.90;;;;;;4984995;28;21045;-63
2024/01/08 01:00:34;;;;;;;4.33;3.60;;;-0.80;99.90;;;;;;4987637;28;20539;-63
2024/01/08 01:03:02;;;;;;;4.90;3.60;;;-0.80;99.90;;;;;;4985526;28;21024;-65
2024/01/08 01:05:30;;;;;;;4.27;3.77;;;-0.80;99.90;;;;;;4999985;28;20501;-65
2024/01/08 01:07:58;;;;;;;6.53;3.70;;;-0.80;99.90;;;;;;5002898;28;20528;-62
2024/01/08 01:10:28;;;;;;;4.83;3.50;;;-0.80;99.90;;;;;;4987600;28;20512;-63
2024/01/08 01:12:56;;;;;;;4.47;3.30;;;-0.80;99.90;;;;;;4986451;28;20579;-63
2024/01/08 01:15:24;;;;;;;4.10;3.60;;;-0.80;99.90;;;;;;4985606;28;20932;-63
2024/01/08 01:17:52;;;;;;;4.97;3.70;;;-0.80;99.90;;;;;;4985318;28;20561;-63
2024/01/08 01:20:20;;;;;;;3.60;3.30;;;-0.80;99.90;;;;;;4984723;28;20731;-63
2024/01/08 01:22:48;;;;;;;3.90;3.50;;;-0.80;99.90;;;;;;4982164;28;20544;-63
2024/01/08 01:25:17;;;;;;;4.30;3.47;;;-0.80;99.90;;;;;;4983869;28;20465;-63
2024/01/08 01:27:46;;;;;;;3.83;3.47;;;-0.80;99.90;;;;;;4984281;28;20477;-62
2024/01/08 01:30:14;;;;;;;4.30;3.30;;;-0.80;99.90;;;;;;4985929;28;20497;-63
2024/01/08 01:32:42;;;;;;;4.10;3.30;;;-0.80;99.90;;;;;;4983325;28;20485;-61
2024/01/08 01:35:11;;;;;;;3.60;3.20;;;-0.80;99.90;;;;;;4983956;28;21091;-63
2024/01/08 01:37:41;;;;;;;3.50;2.90;;;-0.80;99.90;;;;;;4987464;28;20473;-61
2024/01/08 01:40:10;;;;;;;4.00;2.97;;;-0.80;99.90;;;;;;4978255;28;21101;-62
2024/01/08 01:42:38;;;;;;;4.50;3.27;;;-0.80;99.90;;;;;;4976173;28;20483;-65
2024/01/08 01:45:09;;;;;;;3.50;3.20;;;-0.80;99.90;;;;;;5003102;28;20468;-63
2024/01/08 01:47:38;;;;;;;3.80;3.23;;;-0.80;99.90;;;;;;4993332;28;20508;-63
2024/01/08 01:50:08;;;;;;;5.00;3.47;;;-0.80;99.90;;;;;;4986627;28;20548;-63
2024/01/08 01:52:37;;;;;;;6.53;3.80;;;-0.80;99.90;;;;;;4983499;28;20493;-63
2024/01/08 01:55:06;;;;;;;4.07;3.20;;;-0.80;99.90;;;;;;4986055;28;20559;-63
2024/01/08 01:57:34;;;;;;;4.40;3.40;;;-0.80;99.90;;;;;;4980761;28;20564;-62
2024/01/08 02:00:03;;;;;;;3.93;3.17;;;-0.80;99.90;;;;;;4984781;28;20563;-61
2024/01/08 02:02:32;;;;;;;3.33;3.03;;;-0.80;99.90;;;;;;4972818;28;20546;-63
2024/01/08 02:05:02;;;;;;;4.77;3.60;;;-0.80;99.90;;;;;;4982081;28;20518;-62
2024/01/08 02:07:30;;;;;;;3.57;3.17;;;-0.80;99.90;;;;;;4983999;28;20584;-63
2024/01/08 02:09:59;;;;;;;3.57;3.03;;;-0.80;99.90;;;;;;4981295;28;20500;-63
2024/01/08 02:12:28;;;;;;;3.77;2.90;;;-0.70;99.90;;;;;;4982903;28;20524;-62
2024/01/08 02:14:56;;;;;;;3.23;2.93;;;-0.70;99.90;;;;;;4985598;28;21008;-63
2024/01/08 02:17:24;;;;;;;3.50;3.20;;;-0.80;99.90;;;;;;4985400;28;20551;-63
2024/01/08 02:19:53;;;;;;;5.27;2.80;;;-0.70;99.90;;;;;;4981491;28;20500;-62
2024/01/08 02:22:21;;;;;;;4.13;3.20;;;-0.80;99.90;;;;;;4983815;28;20489;-63
2024/01/08 02:24:51;;;;;;;3.07;2.60;;;-0.80;99.90;;;;;;4981232;28;20468;-63
2024/01/08 02:27:19;;;;;;;2.93;2.63;;;-0.70;99.90;;;;;;4984295;28;21155;-63
2024/01/08 02:29:47;;;;;;;6.07;3.27;;;-0.70;99.90;;;;;;4993315;28;20526;-64
2024/01/08 02:32:15;;;;;;;3.77;2.80;;;-0.70;99.90;;;;;;4997400;28;20516;-63
2024/01/08 02:34:43;;;;;;;4.63;3.17;;;-0.70;99.90;;;;;;5002430;28;20504;-61
2024/01/08 02:37:12;;;;;;;4.47;3.23;;;-0.70;99.90;;;;;;4989906;28;20535;-63
2024/01/08 02:39:40;;;;;;;2.60;2.40;;;-0.70;99.90;;;;;;4980329;28;20504;-63
2024/01/08 02:42:09;;;;;;;3.20;2.50;;;-0.60;99.90;;;;;;4983919;28;20504;-63
2024/01/08 02:44:37;;;;;;;3.00;2.63;;;-0.60;99.90;;;;;;4981070;28;21005;-63
2024/01/08 02:47:05;;;;;;;3.07;2.73;;;-0.70;99.90;;;;;;4988590;28;20469;-63
2024/01/08 02:49:34;;;;;;;2.63;2.43;;;-0.70;99.90;;;;;;4986120;28;20892;-62
2024/01/08 02:52:02;;;;;;;3.60;2.97;;;-0.70;99.90;;;;;;4990381;28;20568;-63
2024/01/08 02:54:29;;;;;;;2.60;2.40;;;-0.70;99.90;;;;;;4992660;28;20521;-63
2024/01/08 02:56:59;;;;;;;2.97;2.67;;;-0.60;99.90;;;;;;4988473;28;20776;-62
2024/01/08 02:59:28;;;;;;;3.70;2.80;;;-0.60;99.90;;;;;;4984582;28;20489;-63
2024/01/08 03:01:56;;;;;;;3.40;2.43;;;-0.60;99.90;;;;;;4986143;28;20680;-63
2024/01/08 03:04:24;;;;;;;4.67;2.50;;;-0.60;99.90;;;;;;4990074;28;20469;-63
2024/01/08 03:06:52;;;;;;;2.57;2.27;;;-0.60;99.90;;;;;;4989173;28;20619;-63
2024/01/08 03:09:20;;;;;;;4.83;2.33;;;-0.60;99.90;;;;;;4988177;28;20485;-62
2024/01/08 03:11:48;;;;;;;4.40;2.20;;;-0.60;99.90;;;;;;4985996;28;20616;-63
2024/01/08 03:14:16;;;;;;;2.50;2.13;;;-0.60;99.90;;;;;;4992125;28;20539;-64
2024/01/08 03:16:45;;;;;;;3.13;1.70;;;-0.60;99.90;;;;;;4991159;28;20469;-63
2024/01/08 03:19:13;;;;;;;4.10;2.43;;;-0.60;99.90;;;;;;4990320;28;21192;-64
2024/01/08 03:21:41;;;;;;;3.03;2.50;;;-0.60;99.90;;;;;;4989281;28;20473;-63
2024/01/08 03:24:09;;;;;;;5.83;2.90;;;-0.60;99.90;;;;;;4989854;28;20479;-63
2024/01/08 03:26:38;;;;;;;2.80;2.60;;;-0.60;99.90;;;;;;4983811;28;20484;-63
2024/01/08 03:29:06;;;;;;;2.23;2.00;;;-0.60;99.90;;;;;;4987017;28;20489;-64
2024/01/08 03:31:40;;;;;;;4.63;2.37;;;-0.50;99.90;;;;;;4987549;28;20469;-63
2024/01/08 03:34:10;;;;;;;3.07;2.50;;;-0.50;99.90;;;;;;4983607;28;20595;-63
2024/01/08 03:36:38;;;;;;;2.70;2.47;;;-0.50;99.90;;;;;;4990769;28;20559;-63
2024/01/08 03:39:06;;;;;;;2.63;2.40;;;-0.50;99.90;;;;;;4985569;28;20489;-63
2024/01/08 03:41:34;;;;;;;3.47;2.33;;;-0.50;99.90;;;;;;4984691;28;20572;-63
2024/01/08 03:44:02;;;;;;;3.80;3.03;;;-0.50;99.90;;;;;;4985957;28;21000;-64
2024/01/08 03:46:30;;;;;;;3.37;2.90;;;-0.50;99.90;;;;;;4986047;28;20511;-64
2024/01/08 03:48:58;;;;;;;3.97;2.67;;;-0.50;99.90;;;;;;4983283;28;20567;-63
2024/01/08 03:51:27;;;;;;;3.53;2.27;;;-0.50;99.90;;;;;;4986721;28;21053;-63
2024/01/08 03:53:55;;;;;;;3.90;2.50;;;-0.50;99.90;;;;;;4984451;28;20572;-63
2024/01/08 03:56:23;;;;;;;3.27;2.70;;;-0.50;99.90;;;;;;4987887;28;20536;-62
2024/01/08 03:58:51;;;;;;;2.93;2.33;;;-0.50;99.90;;;;;;5001890;28;20484;-62
2024/01/08 04:01:19;;;;;;;3.70;2.40;;;-0.50;99.90;;;;;;4998930;28;20465;-64
2024/01/08 04:03:47;;;;;;;2.40;2.20;;;-0.50;99.90;;;;;;4988896;28;20484;-63
2024/01/08 04:06:16;;;;;;;5.00;2.50;;;-0.50;99.90;;;;;;4987735;28;20982;-63
2024/01/08 04:08:46;;;;;;;3.00;2.40;;;-0.50;99.90;;;;;;4986872;28;20477;-64
2024/01/08 04:11:14;;;;;;;4.17;3.40;;;-0.50;99.90;;;;;;4985666;28;20500;-64
2024/01/08 04:13:42;;;;;;;2.83;2.63;;;-0.50;99.90;;;;;;4985432;28;20477;-64
2024/01/08 04:16:10;;;;;;;3.30;2.80;;;-0.50;99.90;;;;;;4988253;28;20581;-63
2024/01/08 04:18:38;;;;;;;2.93;2.73;;;-0.50;99.90;;;;;;4988031;28;20484;-63
2024/01/08 04:21:06;;;;;;;3.70;2.47;;;-0.50;99.90;;;;;;4988590;28;20493;-63
2024/01/08 04:23:34;;;;;;;2.93;2.63;;;-0.50;99.90;;;;;;4986075;28;20508;-63
2024/01/08 04:26:04;;;;;;;5.03;2.83;;;-0.50;99.90;;;;;;4989323;28;20473;-62
2024/01/08 04:28:32;;;;;;;3.77;2.63;;;-0.50;99.90;;;;;;4985610;28;20965;-63
2024/01/08 04:31:00;;;;;;;3.80;3.23;;;-0.50;99.90;;;;;;4986454;28;20484;-63
2024/01/08 04:33:28;;;;;;;4.63;2.80;;;-0.50;99.90;;;;;;4981841;28;20509;-64
2024/01/08 04:35:56;;;;;;;6.17;3.20;;;-0.50;99.90;;;;;;4984994;28;20492;-63
2024/01/08 04:38:24;;;;;;;3.60;2.77;;;-0.50;99.90;;;;;;4988844;28;20483;-63
2024/01/08 04:40:52;;;;;;;3.70;3.00;;;-0.50;99.90;;;;;;4998489;28;20507;-62
2024/01/08 04:43:21;;;;;;;5.20;2.80;;;-0.50;99.90;;;;;;4994120;28;20997;-64
2024/01/08 04:45:49;;;;;;;4.13;3.10;;;-0.50;99.90;;;;;;4987201;28;21134;-63
2024/01/08 04:48:17;;;;;;;3.70;2.80;;;-0.50;99.90;;;;;;4985830;28;20553;-64
2024/01/08 04:50:45;;;;;;;6.03;2.90;;;-0.50;99.90;;;;;;4987439;28;20493;-63
2024/01/08 04:53:13;;;;;;;4.33;2.80;;;-0.50;99.90;;;;;;4983951;28;20871;-63
2024/01/08 04:55:41;;;;;;;4.77;3.20;;;-0.50;99.90;;;;;;4984071;28;20497;-63
2024/01/08 04:58:09;;;;;;;6.30;3.33;;;-0.50;99.90;;;;;;4984700;28;20501;-63
2024/01/08 05:00:39;;;;;;;3.10;2.80;;;-0.50;99.90;;;;;;4980619;28;20497;-63
2024/01/08 05:03:09;;;;;;;3.00;2.70;;;-0.50;99.90;;;;;;4982467;28;20525;-64
2024/01/08 05:05:38;;;;;;;5.13;3.10;;;-0.50;99.90;;;;;;4986542;28;20936;-63
2024/01/08 05:08:06;;;;;;;6.63;2.73;;;-0.50;99.90;;;;;;4981143;28;20560;-64
2024/01/08 05:10:34;;;;;;;6.20;3.27;;;-0.50;99.90;;;;;;4988539;28;20501;-63
2024/01/08 05:13:02;;;;;;;3.90;2.97;;;-0.50;99.90;;;;;;4981147;28;21016;-64
2024/01/08 05:15:29;;;;;;;5.17;3.30;;;-0.40;99.90;;;;;;4981019;28;20611;-63
2024/01/08 05:17:59;;;;;;;3.23;2.50;;;-0.40;99.90;;;;;;4983804;28;20564;-63
2024/01/08 05:20:28;;;;;;;2.93;2.70;;;-0.40;99.90;;;;;;4984921;28;20960;-63
2024/01/08 05:22:56;;;;;;;4.10;2.83;;;-0.40;99.90;;;;;;4982225;28;20493;-62
2024/01/08 05:25:24;;;;;;;2.80;2.60;;;-0.40;99.90;;;;;;4981633;28;20648;-64
2024/01/08 05:27:52;;;;;;;5.73;2.60;;;-0.40;99.90;;;;;;4984539;28;20500;-64
2024/01/08 05:30:20;;;;;;;3.93;3.10;;;-0.40;99.90;;;;;;4975048;28;21037;-63
2024/01/08 05:32:50;;;;;;;3.20;2.80;;;-0.40;99.90;;;;;;4983957;28;20508;-63
2024/01/08 05:35:19;;;;;;;4.10;2.73;;;-0.40;99.90;;;;;;4981182;28;20501;-64
2024/01/08 05:37:47;;;;;;;4.90;3.07;;;-0.40;99.90;;;;;;4982873;28;20560;-63
2024/01/08 05:40:15;;;;;;;3.43;2.97;;;-0.40;99.90;;;;;;4977313;28;21061;-63
2024/01/08 05:42:43;;;;;;;3.30;2.57;;;-0.40;99.90;;;;;;4979849;28;20485;-62
2024/01/08 05:45:12;;;;;;;3.67;2.50;;;-0.40;99.90;;;;;;4982969;28;20491;-62
2024/01/08 05:47:42;;;;;;;2.90;2.20;;;-0.40;99.90;;;;;;4985027;28;20575;-63
2024/01/08 05:50:10;;;;;;;2.90;2.60;;;-0.30;99.90;;;;;;4984100;28;20524;-63
2024/01/08 05:52:40;;;;;;;2.47;2.13;;;-0.30;99.90;;;;;;4986148;28;20865;-64
2024/01/08 05:55:09;;;;;;;2.77;2.47;;;-0.20;99.90;;;;;;4985107;28;20592;-63
2024/01/08 05:57:37;;;;;;;5.40;3.00;;;-0.30;99.90;;;;;;4980498;28;20555;-63
2024/01/08 06:00:06;;;;;;;2.97;2.40;;;-0.20;99.90;;;;;;4974257;28;20596;-63
2024/01/08 06:02:34;;;;;;;2.30;2.10;;;-0.20;99.90;;;;;;4978979;28;20580;-64
2024/01/08 06:05:02;;;;;;;2.40;2.20;;;-0.20;99.90;;;;;;4979034;28;20472;-63
2024/01/08 06:07:31;;;;;;;2.43;2.23;;;-0.20;99.90;;;;;;4986731;28;21008;-63
2024/01/08 06:10:00;;;;;;;2.80;2.30;;;-0.20;99.90;;;;;;4989653;28;21016;-63
2024/01/08 06:12:29;;;;;;;4.57;2.77;;;-0.20;99.90;;;;;;4995857;28;20481;-63
2024/01/08 06:14:57;;;;;;;2.20;2.00;;;-0.20;99.90;;;;;;4996549;28;20489;-64
2024/01/08 06:17:25;;;;;;;2.43;2.23;;;-0.20;99.90;;;;;;4988491;28;20484;-63
2024/01/08 06:19:53;;;;;;;2.57;2.37;;;-0.20;99.90;;;;;;4986134;28;20493;-63
2024/01/08 06:22:21;;;;;;;2.20;2.00;;;-0.20;99.90;;;;;;4986032;28;20492;-63
2024/01/08 06:24:49;;;;;;;3.20;2.67;;;-0.20;99.90;;;;;;4982445;28;20989;-63
2024/01/08 06:27:18;;;;;;;3.33;3.03;;;-0.20;99.90;;;;;;4980492;28;20568;-63
2024/01/08 06:29:46;;;;;;;2.70;2.50;;;-0.20;99.90;;;;;;4976541;28;20580;-62
2024/01/08 06:32:14;;;;;;;3.10;2.90;;;-0.20;99.90;;;;;;4980351;28;20477;-62
2024/01/08 06:34:42;;;;;;;3.20;2.90;;;-0.20;99.90;;;;;;4987284;28;20515;-62
2024/01/08 06:37:10;;;;;;;2.83;2.53;;;-0.20;99.90;;;;;;4983201;28;20514;-61
2024/01/08 06:39:39;;;;;;;3.00;2.77;;;-0.20;99.90;;;;;;4969093;28;20499;-62
2024/01/08 06:42:07;;;;;;;3.30;3.00;;;-0.20;99.90;;;;;;4965862;28;20524;-65
2024/01/08 06:44:36;;;;;;;3.80;2.87;;;-0.10;99.90;;;;;;4964567;28;20620;-65
2024/01/08 06:47:05;;;;;;;6.57;3.00;;;-0.10;99.90;;;;;;4972901;28;20477;-65
2024/01/08 06:49:34;;;;;;;2.60;2.40;;;-0.10;99.90;;;;;;4965451;28;20502;-64
2024/01/08 06:52:02;;;;;;;3.20;2.83;;;-0.10;99.90;;;;;;4964633;28;20568;-65
2024/01/08 06:54:30;;;;;;;3.20;2.73;;;-0.10;99.90;;;;;;4976517;28;20897;-61
2024/01/08 06:56:59;;;;;;;3.20;2.47;;;-0.10;99.90;;;;;;4983098;28;20516;-62
2024/01/08 06:59:27;;;;;;;3.63;3.07;;;-0.10;99.90;;;;;;4978643;28;20715;-61
2024/01/08 07:01:57;;;;;;;3.30;2.60;;;-0.10;99.90;;;;;;4982946;28;20477;-62
2024/01/08 07:04:25;;;;;;;2.90;2.50;;;-0.10;99.90;;;;;;4976791;28;20515;-62
2024/01/08 07:06:54;;;;;;;3.80;2.67;;;-0.10;99.90;;;;;;4972682;28;20548;-62
2024/01/08 07:09:22;;;;;;;3.40;3.10;;;-0.10;99.90;;;;;;4976136;28;20582;-62
2024/01/08 07:11:50;;;;;;;3.80;2.97;;;-0.10;99.90;;;;;;4982164;28;20549;-62
2024/01/08 07:14:18;;;;;;;3.20;2.73;;;-0.10;99.90;;;;;;4989964;28;20504;-61
2024/01/08 07:16:46;;;;;;;3.77;3.40;;;-0.10;99.90;;;;;;4989932;28;20493;-61
2024/01/08 07:19:15;;;;;;;3.03;2.57;;;-0.10;99.90;;;;;;4985149;28;20588;-60
2024/01/08 07:21:44;;;;;;;2.90;2.60;;;-0.10;99.90;;;;;;4978633;28;20849;-61
2024/01/08 07:24:13;;;;;;;2.53;2.33;;;-0.10;99.90;;;;;;4978100;28;20990;-61
2024/01/08 07:26:41;;;;;;;3.37;2.63;;;-0.10;99.90;;;;;;4980643;28;20861;-62
2024/01/08 07:29:09;;;;;;;2.77;2.50;;;-0.10;99.90;;;;;;4984612;28;20890;-62
2024/01/08 07:31:38;;;;;;;2.90;2.70;;;-0.20;99.90;;;;;;4982335;28;20531;-63
2024/01/08 07:34:06;;;;;;;3.53;3.23;;;-0.20;99.90;;;;;;4978453;28;20468;-61
2024/01/08 07:36:38;;;;;;;3.73;2.90;;;-0.20;99.90;;;;;;4979450;28;21863;-62
2024/01/08 07:39:06;;;;;;;4.30;2.73;;;-0.20;99.90;;;;;;4974160;28;20503;-62
2024/01/08 07:41:34;;;;;;;5.03;3.10;;;-0.20;99.90;;;;;;4979079;28;20590;-62
2024/01/08 07:44:02;;;;;;;2.90;2.50;;;-0.20;99.90;;;;;;4978748;28;20481;-62
2024/01/08 07:46:31;;;;;;;3.10;2.80;;;-0.20;99.90;;;;;;4984271;28;20744;-62
2024/01/08 07:48:59;;;;;;;2.30;2.10;;;-0.10;99.90;;;;;;4981892;28;20846;-62
2024/01/08 07:51:27;;;;;;;3.80;2.20;;;-0.20;99.90;;;;;;4982189;28;21816;-62
2024/01/08 07:53:59;;;;;;;2.87;2.57;;;-0.20;99.90;;;;;;4985922;28;20491;-62
2024/01/08 07:56:27;;;;;;;2.87;2.40;;;-0.20;99.90;;;;;;4979293;28;20583;-61
2024/01/08 07:58:55;;;;;;;4.23;3.80;;;-0.20;99.90;;;;;;4974730;28;20632;-60
2024/01/08 08:01:23;;;;;;;3.13;2.40;;;-0.20;99.90;;;;;;4980830;28;20473;-61
2024/01/08 08:03:51;;;;;;;3.77;2.50;;;-0.20;99.90;;;;;;4982523;28;20516;-62
2024/01/08 08:06:19;;;;;;;2.80;2.50;;;-0.20;99.90;;;;;;4984533;28;20588;-62
2024/01/08 08:08:48;;;;;;;2.80;2.60;;;-0.20;99.90;;;;;;4981851;28;20560;-62
2024/01/08 08:11:17;;;;;;;2.70;2.50;;;-0.20;99.90;;;;;;4991623;28;20472;-61
2024/01/08 08:13:45;;;;;;;3.70;2.80;;;-0.20;99.90;;;;;;4990241;28;20489;-62
2024/01/08 08:16:13;;;;;;;3.17;2.53;;;-0.20;99.90;;;;;;4980746;28;20603;-62
2024/01/08 08:18:41;;;;;;;3.63;3.07;;;-0.20;99.90;;;;;;4985046;28;20549;-61
2024/01/08 08:21:09;;;;;;;2.70;2.47;;;-0.20;99.90;;;;;;4981765;28;20480;-63
2024/01/08 08:23:37;;;;;;;3.60;2.87;;;-0.20;99.90;;;;;;4981856;28;20575;-62
2024/01/08 08:26:06;;;;;;;2.57;2.37;;;-0.20;99.90;;;;;;4991792;28;20468;-62
2024/01/08 08:28:41;;;;;;;4.17;3.87;;;-0.10;99.90;;;;;;4997884;28;20475;-62
2024/01/08 08:31:09;;;;;;;3.80;3.00;;;-0.10;99.90;;;;;;4983599;28;20933;-62
2024/01/08 08:33:38;;;;;;;3.17;2.60;;;-0.10;99.90;;;;;;4979036;28;20551;-61
2024/01/08 08:36:06;;;;;;;4.93;3.37;;;-0.10;99.90;;;;;;4982396;28;20484;-62
2024/01/08 08:38:35;;;;;;;4.30;2.90;;;-0.10;99.90;;;;;;4980492;28;20465;-63
2024/01/08 08:41:07;;;;;;;3.20;2.33;;;-0.10;99.90;;;;;;4984849;28;20509;-62
2024/01/08 08:43:36;;;;;;;3.87;2.77;;;-0.10;99.90;;;;;;4983230;28;20496;-62
2024/01/08 08:46:06;;;;;;;3.97;3.00;;;0.00;99.90;;;;;;4979926;28;21026;-63
2024/01/08 08:48:34;;;;;;;4.07;3.30;;;-0.10;99.90;;;;;;4986405;28;20842;-62
2024/01/08 08:51:02;;;;;;;4.60;3.40;;;-0.10;99.90;;;;;;4984102;28;20504;-62
2024/01/08 08:53:30;;;;;;;5.97;3.10;;;0.00;99.90;;;;;;4981175;28;20559;-62
2024/01/08 08:55:58;;;;;;;3.57;3.20;;;-0.10;99.90;;;;;;4981555;28;20469;-62
2024/01/08 08:58:28;;;;;;;3.50;2.83;;;0.00;99.90;;;;;;4979248;28;21036;-62
2024/01/08 09:00:56;;;;;;;4.00;3.50;;;0.00;99.90;;;;;;4980796;28;20493;-62
2024/01/08 09:03:26;;;;;;;3.17;2.83;;;0.00;99.90;;;;;;4983879;28;21164;-62
2024/01/08 09:05:54;;;;;;;3.93;3.20;;;0.00;99.90;;;;;;4984961;28;20480;-61
2024/01/08 09:08:25;;;;;;;3.07;2.77;;;0.00;99.90;;;;;;4983167;28;20543;-62
2024/01/08 09:10:54;;;;;;;3.40;3.10;;;0.00;99.90;;;;;;4980897;28;20929;-62
2024/01/08 09:13:22;;;;;;;4.63;3.17;;;0.00;99.90;;;;;;4972682;28;20568;-62
2024/01/08 09:15:50;;;;;;;5.67;3.73;;;-0.10;99.90;;;;;;4980588;28;20505;-62
2024/01/08 09:18:18;;;;;;;3.90;3.30;;;-0.10;99.90;;;;;;4980985;28;20488;-62
2024/01/08 09:20:48;;;;;;;3.33;3.00;;;-0.10;99.90;;;;;;4980113;28;20526;-62
2024/01/08 09:23:16;;;;;;;4.37;3.70;;;-0.10;99.90;;;;;;4980074;28;21057;-62
2024/01/08 09:25:44;;;;;;;3.40;3.10;;;-0.10;99.90;;;;;;4981412;28;20497;-62
2024/01/08 09:28:12;;;;;;;5.23;3.10;;;-0.10;99.90;;;;;;4982881;28;20501;-61
2024/01/08 09:30:40;;;;;;;3.37;2.80;;;0.00;99.90;;;;;;4981622;28;20981;-62
2024/01/08 09:33:09;;;;;;;3.23;2.40;;;0.00;99.90;;;;;;4980513;28;21076;-62
2024/01/08 09:35:37;;;;;;;3.57;3.20;;;0.00;99.90;;;;;;4977753;28;20477;-62
2024/01/08 09:38:07;;;;;;;3.03;2.73;;;-0.10;99.90;;;;;;4977491;28;20507;-62
2024/01/08 09:40:36;;;;;;;4.30;2.60;;;0.00;99.90;;;;;;4979788;28;20925;-63
2024/01/08 09:43:07;;;;;;;2.73;2.53;;;-0.10;99.90;;;;;;4981328;28;20692;-62
2024/01/08 09:45:39;;;;;;;2.93;2.63;;;-0.10;99.90;;;;;;4979955;28;20469;-62
2024/01/08 09:48:08;;;;;;;3.40;3.10;;;-0.10;99.90;;;;;;4978845;28;20468;-62
2024/01/08 09:50:38;;;;;;;3.03;2.70;;;-0.10;99.90;;;;;;4977954;28;20612;-62
2024/01/08 09:53:07;;;;;;;3.17;2.80;;;-0.10;99.90;;;;;;4980576;28;20557;-62
2024/01/08 09:55:38;;;;;;;3.67;2.80;;;-0.20;99.90;;;;;;4977024;28;20529;-60
2024/01/08 09:58:10;;;;;;;3.73;2.90;;;-0.20;99.90;;;;;;4981430;28;20933;-61
2024/01/08 10:00:38;;;;;;;4.07;2.97;;;-0.20;99.90;;;;;;4980783;28;20527;-63
2024/01/08 10:03:06;;;;;;;3.60;2.80;;;-0.20;99.90;;;;;;4979508;28;21134;-62
2024/01/08 10:05:36;;;;;;;4.00;2.80;;;-0.10;99.90;;;;;;4981058;28;20580;-62
2024/01/08 10:08:05;;;;;;;3.10;2.80;;;-0.20;99.90;;;;;;4981668;28;20484;-62
2024/01/08 10:10:35;;;;;;;3.73;3.03;;;-0.20;99.90;;;;;;4977273;28;20877;-62
2024/01/08 10:13:03;;;;;;;3.57;3.20;;;-0.10;99.90;;;;;;4978303;28;20572;-61
2024/01/08 10:15:31;;;;;;;3.20;2.83;;;-0.10;99.90;;;;;;4983141;28;20539;-62
2024/01/08 10:18:02;;;;;;;3.60;3.10;;;0.00;99.90;;;;;;4979752;28;21025;-62
2024/01/08 10:20:31;;;;;;;3.80;3.00;;;0.00;99.90;;;;;;4977286;28;20498;-61
2024/01/08 10:23:06;;;;;;;3.50;2.73;;;0.00;99.90;;;;;;4980612;28;20480;-61
2024/01/08 10:25:37;;;;;;;4.83;3.23;;;0.20;99.90;;;;;;4981051;28;20500;-61
2024/01/08 10:28:09;;;;;;;3.30;3.00;;;0.30;99.90;;;;;;4980848;28;20512;-62
2024/01/08 10:30:38;;;;;;;2.27;2.07;;;0.40;99.90;;;;;;4977389;28;20495;-62
2024/01/08 10:33:08;;;;;;;3.10;2.80;;;0.50;99.90;;;;;;4973564;28;22400;-62
2024/01/08 10:35:38;;;;;;;3.10;2.80;;;0.60;99.90;;;;;;4982078;28;20477;-61
2024/01/08 10:38:08;;;;;;;3.50;2.53;;;0.60;99.90;;;;;;4988505;28;20497;-62
2024/01/08 10:40:37;;;;;;;3.73;3.20;;;0.70;99.90;;;;;;4983367;28;20500;-62
2024/01/08 10:43:06;;;;;;;3.30;2.80;;;0.70;99.90;;;;;;4976926;28;20481;-62
2024/01/08 10:45:34;;;;;;;3.33;3.03;;;0.70;99.90;;;;;;4979316;28;21030;-62
2024/01/08 10:48:11;;;;;;;3.80;2.80;;;0.80;99.90;;;;;;4982476;28;20563;-62
2024/01/08 10:50:39;;;;;;;3.60;2.83;;;0.80;99.90;;;;;;4983432;28;20496;-61
2024/01/08 10:53:14;;;;;;;3.80;2.80;;;0.80;99.90;;;;;;4983189;28;20495;-62
2024/01/08 10:55:44;;;;;;;2.67;2.30;;;0.80;99.90;;;;;;4985551;28;20531;-62
2024/01/08 10:58:23;;;;;;;3.60;2.53;;;0.80;99.90;;;;;;4985381;28;20497;-60
2024/01/08 11:00:53;;;;;;;4.53;2.73;;;0.90;99.90;;;;;;4983932;28;21341;-61
2024/01/08 11:03:21;;;;;;;3.17;2.47;;;0.90;99.90;;;;;;4981495;28;20583;-62
2024/01/08 11:05:51;;;;;;;2.57;2.37;;;0.90;99.90;;;;;;4984563;28;20477;-62
2024/01/08 11:08:20;;;;;;;3.10;2.50;;;0.90;99.90;;;;;;4984047;28;21028;-62
2024/01/08 11:10:51;;;;;;;3.43;2.77;;;0.90;99.90;;;;;;4972760;28;20710;-61
2024/01/08 11:13:19;;;;;;;2.53;2.33;;;1.00;99.90;;;;;;4971440;28;20489;-63
2024/01/08 11:15:49;;;;;;;3.23;2.03;;;0.90;99.90;;;;;;4982135;28;20560;-62
2024/01/08 11:18:27;;;;;;;3.07;2.30;;;0.90;99.90;;;;;;4983045;28;20488;-62
2024/01/08 11:21:01;;;;;;;3.50;2.23;;;0.80;99.90;;;;;;4984498;28;20492;-63
2024/01/08 11:23:34;;;;;;;2.90;2.10;;;0.70;99.90;;;;;;4985092;28;20561;-62
2024/01/08 11:26:08;;;;;;;2.40;2.10;;;0.60;99.90;;;;;;4981905;28;20536;-62
2024/01/08 11:28:38;;;;;;;2.73;2.30;;;0.60;99.90;;;;;;4983994;28;20468;-62
2024/01/08 11:31:58;;;;;;;2.30;2.10;;;0.50;99.90;;;;;;4987310;28;20612;-62
2024/01/08 11:35:03;;;;;;;2.43;1.90;;;0.40;99.90;;;;;;4981751;28;20483;-62
2024/01/08 11:37:33;;;;;;;2.60;2.10;;;0.40;99.90;;;;;;4978859;28;20859;-62
2024/01/08 11:40:13;;;;;;;2.10;1.90;;;0.40;99.90;;;;;;4981085;28;20492;-63
2024/01/08 11:42:44;;;;;;;2.00;1.90;;;0.40;99.90;;;;;;4981823;28;20541;-62
2024/01/08 11:45:12;;;;;;;2.27;2.10;;;0.50;99.90;;;;;;4988455;28;21651;-63
2024/01/08 11:47:40;;;;;;;2.73;2.13;;;0.50;99.90;;;;;;4985761;28;20931;-63
2024/01/08 11:50:10;;;;;;;2.37;2.17;;;0.50;99.90;;;;;;4985462;28;20523;-62
2024/01/08 11:52:39;;;;;;;2.03;1.90;;;0.60;99.90;;;;;;4981270;28;20477;-61
2024/01/08 11:55:08;;;;;;;2.00;1.90;;;0.70;99.90;;;;;;4981423;28;20572;-62
2024/01/08 11:57:38;;;;;;;1.93;1.73;;;0.80;99.90;;;;;;4982020;28;20473;-63
2024/01/08 12:00:14;;;;;;;4.00;2.30;;;0.90;99.90;;;;;;4978003;28;21018;-63
2024/01/08 12:02:43;;;;;;;2.67;2.00;;;1.00;99.90;;;;;;4982802;28;20492;-63
2024/01/08 12:05:12;;;;;;;2.57;2.13;;;1.10;99.90;;;;;;4982582;28;21263;-62
2024/01/08 12:07:41;;;;;;;2.67;2.10;;;1.10;99.90;;;;;;4978749;28;20481;-62
2024/01/08 12:10:12;;;;;;;4.40;2.40;;;1.20;99.90;;;;;;4979035;28;21364;-62
2024/01/08 12:12:40;;;;;;;2.83;2.50;;;1.20;99.90;;;;;;4979691;28;20503;-62
2024/01/08 12:15:09;;;;;;;4.67;2.37;;;1.20;99.90;;;;;;4982437;28;20469;-62
2024/01/08 12:17:40;;;;;;;4.43;2.43;;;1.20;99.90;;;;;;4979821;28;20993;-62
2024/01/08 12:20:09;;;;;;;3.67;2.47;;;1.20;99.90;;;;;;4983619;28;20500;-62
2024/01/08 12:22:38;;;;;;;3.10;2.10;;;1.20;99.90;;;;;;4981115;28;20477;-62
2024/01/08 12:25:09;;;;;;;3.40;2.50;;;1.10;99.90;;;;;;4972185;28;20851;-62
2024/01/08 12:27:37;;;;;;;4.20;2.50;;;1.20;99.90;;;;;;4977689;28;20470;-62
2024/01/08 12:30:06;;;;;;;2.70;2.43;;;1.10;99.90;;;;;;4978115;28;20489;-62
2024/01/08 12:32:33;;;;;;;4.03;2.60;;;1.10;99.90;;;;;;4981097;28;20547;-63
2024/01/08 12:35:04;;;;;;;5.43;3.00;;;1.10;99.90;;;;;;4980560;28;20473;-64
2024/01/08 12:37:34;;;;;;;4.17;3.00;;;1.10;99.90;;;;;;4979381;28;21068;-61
2024/01/08 12:40:04;;;;;;;3.60;2.50;;;1.10;99.90;;;;;;4977059;28;21005;-63
2024/01/08 12:42:35;;;;;;;2.50;2.13;;;1.20;99.90;;;;;;4976658;28;20504;-62
2024/01/08 12:45:04;;;;;;;2.50;2.20;;;1.20;99.90;;;;;;4982227;28;20559;-62
2024/01/08 12:47:32;;;;;;;2.50;2.13;;;1.20;99.90;;;;;;4980678;28;20477;-61
2024/01/08 12:50:00;;;;;;;2.20;2.00;;;1.20;99.90;;;;;;4978981;28;21087;-60
2024/01/08 12:52:30;;;;;;;3.03;2.40;;;1.20;99.90;;;;;;4976556;28;20485;-62
2024/01/08 12:54:58;;;;;;;2.37;2.17;;;1.20;99.90;;;;;;4982634;28;20501;-62
2024/01/08 12:57:30;;;;;;;2.47;2.20;;;1.20;99.90;;;;;;4981319;28;20504;-65
2024/01/08 12:59:59;;;;;;;2.60;2.40;;;1.20;99.90;;;;;;4978774;28;20592;-61